Latest Weather Observations for Coldstream

IDV60801

Issued at 10:02 pm EST Monday 27 April 2015 (issued every 30 minutes, with the page automatically refreshed every 10 minutes)

About weather observations | Map of weather stations | Latest weather observations for VIC | Other Formats
Station Details ID: 086383 Name: COLDSTREAM Lat: -37.72 Lon: 145.41 Height: 83.0 m
Data from the previous 72 hours. | See also: Recent months at Coldstream
Date/Time
EST
Temp
°C
App
Temp
°C
Dew
Point
Rel
Hum
%
Delta-T
°C
Wind Press
QNH
hPa
Press
MSL
hPa
Rain
since 9 am
mm
Dir
 
Spd
km/h
Gust
km/h
Spd
kts
Gust
kts
27/10:00pm 9.8 9.7 9.3 97 0.2 CALM 0 0 0 0 1025.9 1025.9 0.2
27/09:30pm 9.2 8.9 8.6 96 0.3 CALM 0 0 0 0 1025.7 1025.7 0.2
27/09:00pm 10.1 10.0 9.3 95 0.4 CALM 0 0 0 0 1025.5 1025.5 0.2
27/08:30pm 10.8 10.9 10.0 95 0.4 CALM 0 0 0 0 1025.3 1025.3 0.2
27/08:00pm 10.7 10.6 9.6 93 0.6 CALM 0 0 0 0 1025.2 1025.2 0.0
27/07:30pm 10.9 9.7 9.5 91 0.7 ESE 6 6 3 3 1025.0 1025.0 0.0
27/07:00pm 11.7 10.3 9.6 87 1.1 SSE 7 11 4 6 1024.8 1024.8 0.0
27/06:30pm 11.7 11.0 8.7 82 1.5 ESE 2 6 1 3 1024.4 1024.4 0.0
27/06:00pm 12.1 10.7 8.9 81 1.6 SE 6 9 3 5 1024.0 1024.0 0.0
27/05:30pm 12.5 11.1 8.8 78 1.9 S 6 7 3 4 1023.8 1023.8 0.0
27/05:00pm 12.8 10.8 8.5 75 2.1 SSW 9 15 5 8 1023.5 1023.5 0.0
27/04:30pm 13.4 9.6 7.6 68 2.9 WSW 17 24 9 13 1023.3 1023.3 0.0
27/04:00pm 13.9 12.6 9.1 73 2.4 S 6 9 3 5 1023.1 1023.1 0.0
27/03:30pm 12.9 9.0 8.8 76 2.1 SW 19 33 10 18 1023.2 1023.2 0.0
27/03:00pm 13.3 11.6 9.7 79 1.8 SSW 9 13 5 7 1022.9 1022.9 0.0
27/02:30pm 13.1 10.4 9.0 76 2.1 SSW 13 26 7 14 1022.8 1022.8 0.0
27/02:00pm 13.4 11.5 9.1 75 2.2 SW 9 19 5 10 1022.5 1022.5 0.0
27/01:30pm 13.2 9.3 8.7 74 2.3 WSW 19 26 10 14 1022.4 1022.4 0.0
27/01:00pm 15.1 11.2 9.5 69 2.9 WSW 20 28 11 15 1022.4 1022.4 0.0
27/12:30pm 13.1 9.3 9.2 77 2.0 SW 19 24 10 13 1022.7 1022.7 0.0
27/12:00pm 14.3 11.5 10.1 76 2.2 WSW 15 22 8 12 1022.9 1022.9 0.0
27/11:30am 13.1 10.8 10.6 85 1.3 WSW 13 17 7 9 1023.2 1023.2 0.0
27/11:00am 12.6 11.5 10.5 87 1.1 SW 7 13 4 7 1023.2 1023.2 0.0
27/10:30am 11.8 9.4 10.2 90 0.8 W 13 19 7 10 1023.3 1023.3 0.0
27/10:00am 11.7 9.7 10.3 91 0.7 W 11 17 6 9 1023.2 1023.2 0.0
27/09:30am 12.0 10.3 11.2 95 0.4 WSW 11 13 6 7 1023.1 1023.1 0.0
27/09:00am 10.8 8.8 10.2 96 0.3 W 11 17 6 9 1023.2 1023.2 4.2
27/08:30am 10.4 7.6 9.9 97 0.3 W 15 20 8 11 1023.0 1023.0 4.2
27/08:00am 10.2 8.1 9.7 97 0.3 W 11 15 6 8 1022.7 1022.7 4.2
27/07:30am 10.1 8.7 9.5 96 0.3 WNW 7 11 4 6 1022.5 1022.5 4.2
27/07:00am 10.1 7.9 9.5 96 0.3 W 11 17 6 9 1022.1 1022.1 4.2
27/06:30am 10.0 7.8 9.4 96 0.3 WNW 11 17 6 9 1021.7 1021.7 4.0
27/06:00am 10.0 7.8 9.5 97 0.2 W 11 15 6 8 1021.5 1021.5 3.8
27/05:30am 9.9 8.1 9.4 97 0.2 WNW 9 13 5 7 1021.4 1021.4 3.8
27/05:00am 10.0 8.2 9.4 96 0.3 W 9 13 5 7 1021.1 1021.1 3.2
27/04:30am 10.0 7.4 9.4 96 0.3 W 13 19 7 10 1020.8 1020.8 3.2
27/04:00am 10.1 8.3 9.5 96 0.3 WNW 9 17 5 9 1020.7 1020.7 3.0
27/03:30am 10.0 8.2 9.4 96 0.3 WSW 9 13 5 7 1020.7 1020.7 2.8
27/03:00am 10.0 7.8 9.2 95 0.4 WSW 11 15 6 8 1020.6 1020.6 2.6
27/02:30am 10.0 8.1 9.2 95 0.4 WSW 9 13 5 7 1020.6 1020.6 2.6
27/02:00am 10.0 8.5 9.2 95 0.4 W 7 11 4 6 1020.6 1020.6 2.6
27/01:30am 10.0 9.5 9.2 95 0.4 WNW 2 7 1 4 1020.7 1020.7 2.2
27/01:00am 10.0 8.1 9.1 94 0.4 WNW 9 13 5 7 1020.7 1020.7 2.2
27/12:30am 10.1 7.9 9.2 94 0.4 W 11 17 6 9 1020.8 1020.8 2.2
27/12:00am 10.2 8.2 8.8 91 0.7 WNW 9 13 5 7 1020.8 1020.8 1.8
 
Date/Time
EST
Temp
°C
App
Temp
°C
Dew
Point
Rel
Hum
%
Delta-T
°C
Wind Press
QNH
hPa
Press
MSL
hPa
Rain
since 9 am
mm
Dir
 
Spd
km/h
Gust
km/h
Spd
kts
Gust
kts
26/11:30pm 10.5 8.4 8.4 87 1.0 NW 9 15 5 8 1020.9 1020.9 1.4
26/11:00pm 10.3 8.6 8.4 88 0.9 WNW 7 11 4 6 1021.0 1021.0 1.4
26/10:30pm 10.2 9.6 9.0 92 0.6 SW 2 11 1 6 1021.0 1021.0 1.4
26/10:00pm 10.4 8.4 8.8 90 0.8 SW 9 13 5 7 1021.2 1021.2 1.4
26/09:30pm 10.5 10.5 9.7 95 0.4 CALM 0 0 0 0 1021.2 1021.2 1.2
26/09:00pm 10.4 9.5 9.3 93 0.5 WSW 4 7 2 4 1021.0 1021.0 1.2
26/08:30pm 10.5 8.6 9.1 91 0.7 W 9 13 5 7 1020.8 1020.8 1.2
26/08:00pm 10.8 10.2 8.9 88 0.9 S 2 7 1 4 1020.8 1020.8 0.6
26/07:30pm 11.3 7.7 8.3 82 1.5 SSW 17 30 9 16 1020.8 1020.8 0.4
26/07:00pm 12.2 10.1 6.7 69 2.6 SW 7 9 4 5 1020.4 1020.4 0.4
26/06:30pm 12.6 9.3 6.2 65 3.0 SW 13 20 7 11 1020.1 1020.1 0.4
26/06:06pm 12.7 9.0 6.5 66 3.0 SW 15 37 8 20 1020.1 1020.1 0.4
26/06:00pm 12.6 10.8 7.9 73 2.3 SSW 7 15 4 8 1019.9 1019.9 0.4
26/05:30pm 12.7 10.6 8.2 74 2.2 SSW 9 17 5 9 1019.5 1019.5 0.4
26/05:00pm 12.4 11.0 8.9 79 1.8 SSW 6 11 3 6 1019.3 1019.3 0.4
26/04:30pm 12.5 10.1 8.6 77 1.9 SSW 11 20 6 11 1019.2 1019.2 0.4
26/04:00pm 11.6 8.9 8.8 83 1.4 SSW 13 26 7 14 1019.0 1019.0 0.4
26/03:30pm 13.3 9.5 9.2 76 2.1 SW 19 32 10 17 1018.8 1018.8 0.2
26/03:00pm 12.9 8.8 8.6 75 2.1 SW 20 35 11 19 1018.7 1018.7 0.2
26/02:30pm 13.7 11.1 9.4 75 2.2 WSW 13 20 7 11 1018.3 1018.3 0.2
26/02:00pm 12.8 10.3 8.3 74 2.2 SW 11 22 6 12 1018.3 1018.3 0.2
26/01:30pm 12.4 10.4 10.0 85 1.2 SSW 11 17 6 9 1018.4 1018.4 0.2
26/01:00pm 13.2 10.0 8.5 73 2.3 SSW 15 30 8 16 1018.3 1018.3 0.0
26/12:30pm 13.2 10.1 7.4 68 2.8 S 13 26 7 14 1018.4 1018.4 0.0
26/12:00pm 12.3 9.2 8.8 79 1.7 S 15 24 8 13 1018.5 1018.5 0.0
26/11:30am 12.4 9.4 9.2 81 1.6 WSW 15 20 8 11 1018.6 1018.6 0.0
26/11:00am 12.2 8.7 8.7 79 1.7 WSW 17 20 9 11 1018.6 1018.6 0.0
26/10:30am 13.6 10.9 8.9 73 2.4 SW 13 20 7 11 1018.4 1018.4 0.0
26/10:00am 13.6 11.4 8.0 69 2.8 SSW 9 15 5 8 1018.4 1018.4 0.0
26/09:30am 12.7 9.8 6.7 67 2.9 SSW 11 19 6 10 1018.3 1018.3 0.0
26/09:00am 11.8 9.6 9.4 85 1.2 W 11 15 6 8 1018.0 1018.0 7.2
26/08:30am 11.5 8.0 8.9 84 1.3 W 17 22 9 12 1017.9 1017.9 7.2
26/08:00am 11.1 9.9 9.4 89 0.9 S 6 7 3 4 1017.3 1017.3 7.2
26/07:30am 10.6 7.9 9.0 90 0.8 WNW 13 17 7 9 1016.9 1016.8 7.2
26/07:00am 11.1 9.2 9.0 87 1.0 W 9 15 5 8 1016.5 1016.4 7.2
26/06:30am 11.5 9.6 7.4 76 2.0 S 7 13 4 7 1016.1 1016.0 7.2
26/06:00am 11.6 8.8 6.9 73 2.2 S 11 15 6 8 1015.8 1015.7 7.2
26/05:30am 11.8 8.4 7.5 75 2.1 SSW 15 32 8 17 1015.6 1015.5 7.2
26/05:00am 11.8 9.6 7.9 77 1.9 SW 9 15 5 8 1015.5 1015.4 7.2
26/04:30am 11.8 9.6 7.9 77 1.9 SW 9 13 5 7 1015.2 1015.1 7.2
26/04:00am 11.6 9.8 7.9 78 1.8 SSW 7 13 4 7 1014.9 1014.8 7.2
26/03:30am 11.6 9.5 8.1 79 1.7 SW 9 13 5 7 1014.7 1014.6 7.2
26/03:00am 11.7 7.2 8.4 80 1.6 SW 22 39 12 21 1014.5 1014.4 7.2
26/02:30am 11.8 8.6 8.6 81 1.6 SW 15 26 8 14 1014.3 1014.2 7.2
26/02:00am 11.9 10.1 9.5 85 1.2 SSW 9 17 5 9 1014.3 1014.2 7.2
26/01:30am 12.0 9.6 9.9 87 1.1 SSW 13 22 7 12 1014.3 1014.2 7.2
26/01:00am 12.1 9.5 10.7 91 0.7 SW 15 22 8 12 1014.1 1014.0 7.2
26/12:30am 12.3 9.6 10.5 89 0.9 SW 15 24 8 13 1013.6 1013.6 7.2
26/12:00am 12.5 10.1 9.9 84 1.3 SW 13 22 7 12 1013.5 1013.5 7.2
 
Date/Time
EST
Temp
°C
App
Temp
°C
Dew
Point
Rel
Hum
%
Delta-T
°C
Wind Press
QNH
hPa
Press
MSL
hPa
Rain
since 9 am
mm
Dir
 
Spd
km/h
Gust
km/h
Spd
kts
Gust
kts
25/11:30pm 12.6 9.9 10.5 87 1.1 SSW 15 24 8 13 1013.3 1013.3 7.2
25/11:00pm 12.7 10.1 10.8 88 1.0 SSW 15 28 8 15 1013.2 1013.2 7.2
25/10:30pm 12.6 10.9 11.3 92 0.7 SSW 11 19 6 10 1012.9 1012.9 7.2
25/10:00pm 12.7 10.4 11.8 94 0.5 SW 15 22 8 12 1012.7 1012.7 7.2
25/09:30pm 13.0 11.2 12.1 94 0.5 SW 13 20 7 11 1012.5 1012.5 6.6
25/09:00pm 13.1 11.7 12.3 95 0.4 WSW 11 19 6 10 1012.3 1012.3 3.4
25/08:30pm 12.8 12.3 12.0 95 0.4 SW 6 9 3 5 1012.1 1012.1 3.4
25/08:00pm 12.7 12.9 11.9 95 0.4 WSW 2 7 1 4 1011.8 1011.8 3.4
25/07:30pm 12.8 12.3 11.9 94 0.5 WSW 6 9 3 5 1011.4 1011.4 3.4
25/07:00pm 13.2 12.1 11.9 92 0.7 WSW 9 15 5 8 1011.2 1011.2 1.4
25/06:30pm 13.3 14.1 12.4 94 0.5 CALM 0 0 0 0 1010.9 1010.9 1.2
25/06:00pm 13.2 13.4 11.9 92 0.7 NW 2 9 1 5 1010.5 1010.5 1.2
25/05:30pm 13.5 14.1 11.9 90 0.9 CALM 0 0 0 0 1010.2 1010.2 1.2
25/05:00pm 13.8 14.3 11.7 87 1.1 CALM 0 6 0 3 1009.8 1009.8 1.2
25/04:30pm 13.7 13.1 11.6 87 1.1 WSW 6 7 3 4 1009.4 1009.4 1.2
25/04:00pm 13.8 11.9 11.8 88 1.1 WSW 13 17 7 9 1009.3 1009.3 1.2
25/03:30pm 13.7 12.1 11.4 86 1.2 W 11 17 6 9 1009.3 1009.3 1.2
25/03:00pm 13.9 12.3 11.4 85 1.3 WNW 11 17 6 9 1009.0 1009.0 1.2
25/02:30pm 13.5 11.5 11.4 87 1.1 W 13 17 7 9 1008.9 1008.9 1.2
25/02:00pm 13.4 11.1 11.8 90 0.9 W 15 19 8 10 1008.7 1008.7 1.2
25/01:30pm 13.8 12.1 12.5 92 0.7 W 13 17 7 9 1008.4 1008.4 1.2
25/01:00pm 13.4 11.2 12.1 92 0.7 W 15 17 8 9 1008.5 1008.5 1.2
25/12:30pm 13.5 11.7 12.2 92 0.7 W 13 15 7 8 1008.6 1008.6 1.2
25/12:00pm 13.7 14.3 11.9 89 1.0 CALM 0 0 0 0 1008.7 1008.7 1.2
25/11:30am 13.6 13.9 12.3 92 0.7 W 2 6 1 3 1008.9 1008.9 1.0
25/11:00am 12.9 13.5 12.0 94 0.5 CALM 0 0 0 0 1009.0 1009.0 1.0
25/10:30am 12.5 12.7 11.9 96 0.3 SSW 2 7 1 4 1008.9 1008.9 1.0
25/10:00am 12.0 11.3 11.4 96 0.3 WNW 6 9 3 5 1008.9 1008.9 1.0
25/09:30am 12.3 12.3 11.2 93 0.6 WSW 2 6 1 3 1008.9 1008.9 0.4
25/09:00am 12.0 12.2 10.7 92 0.7 CALM 0 0 0 0 1008.5 1008.5 3.2
25/08:30am 11.9 10.8 10.8 93 0.6 SE 7 9 4 5 1008.3 1008.3 3.2
25/08:00am 11.7 11.9 10.6 93 0.6 CALM 0 0 0 0 1008.0 1008.0 3.2
25/07:30am 11.6 10.6 10.3 92 0.7 SSW 6 9 3 5 1007.8 1007.8 3.0
25/07:00am 11.5 9.5 10.1 91 0.7 WSW 11 17 6 9 1007.7 1007.7 3.0
25/06:30am 12.0 11.1 11.5 97 0.3 WNW 7 13 4 7 1007.3 1007.3 3.0
25/06:00am 11.6 10.9 11.3 98 0.2 WSW 6 11 3 6 1006.6 1006.5 3.0
25/05:30am 11.6 12.0 11.1 97 0.3 CALM 0 0 0 0 1006.2 1006.1 3.0
25/05:00am 11.8 11.5 11.3 97 0.3 SSE 4 9 2 5 1006.0 1005.9 3.0
25/04:30am 11.9 11.6 11.4 97 0.3 S 4 9 2 5 1006.0 1005.9 2.8
25/04:00am 11.9 12.3 11.4 97 0.3 CALM 0 0 0 0 1005.9 1005.8 2.8
25/03:30am 11.9 12.3 11.4 97 0.3 CALM 0 0 0 0 1005.9 1005.8 2.8
25/03:00am 12.0 12.1 11.5 97 0.3 SSW 2 7 1 4 1006.0 1005.9 2.8
25/02:30am 11.9 12.3 11.4 97 0.3 CALM 0 6 0 3 1006.3 1006.2 2.8
25/02:00am 11.8 11.8 11.3 97 0.3 SE 2 7 1 4 1006.6 1006.5 2.8
25/01:30am 11.7 11.3 11.1 96 0.3 E 4 7 2 4 1006.6 1006.5 2.8
25/01:00am 12.3 11.6 11.5 95 0.4 S 6 7 3 4 1006.6 1006.5 2.8
25/12:30am 12.5 11.3 11.6 94 0.5 E 9 11 5 6 1006.5 1006.4 2.8
25/12:00am 12.7 12.1 11.6 93 0.6 NE 6 11 3 6 1006.7 1006.6 2.6
 
Date/Time
EST
Temp
°C
App
Temp
°C
Dew
Point
Rel
Hum
%
Delta-T
°C
Wind Press
QNH
hPa
Press
MSL
hPa
Rain
since 9 am
mm
Dir
 
Spd
km/h
Gust
km/h
Spd
kts
Gust
kts
24/11:30pm 13.1 12.8 11.3 89 1.0 NW 4 9 2 5 1006.8 1006.8 1.8
24/11:00pm 14.0 12.9 10.6 80 1.8 WNW 7 15 4 8 1006.8 1006.8 0.0
24/10:30pm 14.8 11.2 10.0 73 2.5 W 19 30 10 16 1006.4 1006.3 0.0

Other Formats:

Comma delimited format used in spreadsheet applications
http://www.bom.gov.au/fwo/IDV60801/IDV60801.94864.axf

JavaScript Object Notation format (JSON) in row-major order
http://www.bom.gov.au/fwo/IDV60801/IDV60801.94864.json